Time;durP1;ratioP1;P1;durP2;ratioP2;P2;SDS_P1;SDS_P2;PMS_P1;PMS_P2;Temp;Humidity;BMP_temperature;BMP_pressure;BME280_temperature;BME280_humidity;BME280_pressure;Samples;Min_cycle;Max_cycle;Signal;HPM_P1;HPM_P2
2022/09/10 00:02:00;;;;;;;2.80;1.70;;;17.70;99.90;;;;;;4991927;28;20243;-61
2022/09/10 00:04:26;;;;;;;2.77;1.40;;;17.60;99.90;;;;;;4994974;28;20396;-62
2022/09/10 00:06:52;;;;;;;3.27;1.50;;;17.50;99.90;;;;;;4999783;28;20755;-61
2022/09/10 00:09:18;;;;;;;4.23;1.37;;;17.50;99.90;;;;;;4996416;28;20439;-61
2022/09/10 00:11:44;;;;;;;3.73;1.80;;;17.50;99.90;;;;;;5006321;28;20188;-61
2022/09/10 00:14:14;;;;;;;5.20;1.40;;;17.40;99.90;;;;;;4996715;28;20220;-61
2022/09/10 00:16:40;;;;;;;2.87;1.60;;;17.40;99.90;;;;;;4994061;28;20532;-61
2022/09/10 00:19:06;;;;;;;2.03;1.40;;;17.40;99.90;;;;;;4994535;28;20776;-61
2022/09/10 00:21:32;;;;;;;4.30;1.70;;;17.40;99.90;;;;;;4998356;28;20432;-61
2022/09/10 00:23:59;;;;;;;4.40;1.43;;;17.40;99.90;;;;;;4994561;28;20453;-61
2022/09/10 00:26:30;;;;;;;3.63;1.40;;;17.30;99.90;;;;;;4998152;28;20710;-61
2022/09/10 00:29:00;;;;;;;2.83;1.57;;;17.40;99.90;;;;;;4994450;28;20436;-61
2022/09/10 00:31:26;;;;;;;2.83;1.37;;;17.40;99.90;;;;;;4996591;28;20452;-61
2022/09/10 00:33:53;;;;;;;1.90;1.30;;;17.40;99.90;;;;;;4996056;28;20478;-62
2022/09/10 00:36:23;;;;;;;4.77;1.60;;;17.30;99.90;;;;;;5001001;28;20503;-62
2022/09/10 00:38:52;;;;;;;2.90;1.73;;;17.30;99.90;;;;;;4996731;28;20859;-63
2022/09/10 00:41:20;;;;;;;5.20;1.63;;;17.20;99.90;;;;;;5000554;28;20432;-62
2022/09/10 00:43:48;;;;;;;7.00;1.77;;;17.30;99.90;;;;;;5003166;28;20462;-62
2022/09/10 00:46:28;;;;;;;5.67;1.90;;;17.30;99.90;;;;;;4998339;28;20440;-62
2022/09/10 00:48:57;;;;;;;2.77;1.60;;;17.20;99.90;;;;;;5001730;28;20462;-62
2022/09/10 00:51:25;;;;;;;4.00;1.90;;;17.10;99.90;;;;;;5003381;28;21778;-62
2022/09/10 00:53:51;;;;;;;3.33;1.60;;;17.30;99.90;;;;;;4998586;28;21196;-61
2022/09/10 00:56:17;;;;;;;5.53;2.97;;;17.20;99.90;;;;;;5000668;28;20526;-61
2022/09/10 00:58:44;;;;;;;2.93;1.77;;;17.10;99.90;;;;;;4997385;28;20720;-61
2022/09/10 01:01:10;;;;;;;6.27;2.20;;;17.10;99.90;;;;;;4997460;28;20173;-62
2022/09/10 01:03:37;;;;;;;4.90;3.50;;;17.20;99.90;;;;;;5001700;28;20509;-62
2022/09/10 01:06:04;;;;;;;3.87;1.80;;;17.10;99.90;;;;;;4995268;28;20177;-62
2022/09/10 01:08:30;;;;;;;2.30;1.60;;;17.10;99.90;;;;;;4998198;28;20467;-62
2022/09/10 01:11:14;;;;;;;2.70;1.60;;;17.20;99.90;;;;;;5000659;28;20928;-62
2022/09/10 01:14:04;;;;;;;4.00;1.70;;;17.10;99.90;;;;;;4995500;28;20477;-61
2022/09/10 01:16:37;;;;;;;3.17;1.77;;;17.10;99.90;;;;;;4996308;28;20675;-61
2022/09/10 01:19:45;;;;;;;3.20;1.50;;;17.20;99.90;;;;;;4991757;28;20447;-62
2022/09/10 01:22:20;;;;;;;3.67;1.63;;;17.10;99.90;;;;;;4999526;28;20440;-61
2022/09/10 01:24:55;;;;;;;3.40;1.80;;;17.10;99.90;;;;;;4999481;28;20823;-62
2022/09/10 01:27:32;;;;;;;3.10;1.70;;;17.10;99.90;;;;;;4994696;28;20831;-61
2022/09/10 01:30:04;;;;;;;2.60;1.50;;;17.20;99.90;;;;;;4997488;28;20946;-62
2022/09/10 01:32:56;;;;;;;1.60;1.10;;;17.20;99.90;;;;;;5000170;28;20432;-61
2022/09/10 01:35:43;;;;;;;2.03;1.27;;;17.30;99.90;;;;;;4996559;28;20464;-62
2022/09/10 01:38:15;;;;;;;3.47;1.60;;;17.10;99.90;;;;;;4998526;28;20450;-62
2022/09/10 01:40:42;;;;;;;4.10;1.50;;;17.20;99.90;;;;;;5000197;28;20440;-62
2022/09/10 01:43:10;;;;;;;4.97;1.73;;;17.20;99.90;;;;;;4996149;28;20436;-61
2022/09/10 01:45:51;;;;;;;4.83;1.60;;;17.20;99.90;;;;;;4998616;28;20437;-62
2022/09/10 01:48:27;;;;;;;2.63;1.50;;;17.20;99.90;;;;;;4995363;28;20480;-62
2022/09/10 01:51:26;;;;;;;3.20;1.53;;;17.30;99.90;;;;;;4996171;28;20961;-62
2022/09/10 01:54:12;;;;;;;2.17;1.50;;;17.20;99.90;;;;;;4998304;28;21829;-62
2022/09/10 01:56:52;;;;;;;2.57;1.60;;;17.20;99.90;;;;;;4996021;28;20467;-62
2022/09/10 01:59:25;;;;;;;6.73;1.70;;;17.20;99.90;;;;;;4997530;28;20432;-62
2022/09/10 02:02:16;;;;;;;5.87;1.50;;;17.10;99.90;;;;;;4997122;28;20439;-62
2022/09/10 02:04:42;;;;;;;5.40;1.33;;;17.10;99.90;;;;;;5007054;28;20833;-62
2022/09/10 02:07:11;;;;;;;2.30;1.40;;;17.10;99.90;;;;;;5000711;28;20440;-62
2022/09/10 02:09:37;;;;;;;2.57;1.37;;;17.10;99.90;;;;;;4998007;28;20447;-62
2022/09/10 02:12:03;;;;;;;3.30;1.50;;;17.20;99.90;;;;;;4999200;28;20436;-62
2022/09/10 02:14:28;;;;;;;2.33;1.20;;;17.20;99.90;;;;;;4999455;28;21004;-62
2022/09/10 02:16:59;;;;;;;2.83;1.37;;;17.20;99.90;;;;;;4998251;28;20271;-62
2022/09/10 02:19:26;;;;;;;3.40;1.27;;;17.10;99.90;;;;;;5011628;28;20196;-62
2022/09/10 02:21:55;;;;;;;2.60;1.30;;;17.10;99.90;;;;;;4999840;28;20439;-62
2022/09/10 02:24:21;;;;;;;3.60;1.57;;;17.10;99.90;;;;;;4998721;28;21218;-62
2022/09/10 02:26:47;;;;;;;2.50;1.30;;;17.10;99.90;;;;;;4999131;28;21277;-62
2022/09/10 02:29:15;;;;;;;5.43;1.57;;;17.10;99.90;;;;;;4998846;28;20446;-62
2022/09/10 02:31:42;;;;;;;4.13;1.80;;;17.00;99.90;;;;;;5008338;28;20976;-62
2022/09/10 02:34:09;;;;;;;1.70;1.37;;;17.10;99.90;;;;;;4997051;28;20812;-63
2022/09/10 02:36:35;;;;;;;2.10;1.43;;;17.10;99.90;;;;;;4997712;28;21327;-63
2022/09/10 02:39:03;;;;;;;2.90;1.47;;;17.10;99.90;;;;;;4996253;28;20435;-60
2022/09/10 02:41:31;;;;;;;4.20;1.70;;;17.10;99.90;;;;;;4999152;28;20462;-59
2022/09/10 02:43:56;;;;;;;2.27;1.60;;;17.10;99.90;;;;;;4998082;28;22028;-60
2022/09/10 02:46:22;;;;;;;4.00;1.90;;;17.20;99.90;;;;;;4995607;28;20435;-59
2022/09/10 02:48:48;;;;;;;3.87;1.70;;;17.10;99.90;;;;;;4999921;28;20266;-62
2022/09/10 02:51:13;;;;;;;4.87;2.17;;;17.20;99.90;;;;;;4996049;28;20876;-60
2022/09/10 02:53:39;;;;;;;3.77;2.00;;;17.20;99.90;;;;;;5000798;28;20209;-60
2022/09/10 02:56:06;;;;;;;2.83;1.50;;;17.20;99.90;;;;;;4995740;28;20649;-60
2022/09/10 02:58:32;;;;;;;4.23;1.60;;;17.20;99.90;;;;;;4999329;28;20331;-59
2022/09/10 03:01:09;;;;;;;2.40;1.70;;;17.20;99.90;;;;;;4998142;28;20436;-60
2022/09/10 03:03:35;;;;;;;2.27;1.73;;;17.10;99.90;;;;;;4998396;28;20456;-60
2022/09/10 03:06:02;;;;;;;6.10;1.47;;;17.20;99.90;;;;;;4998813;28;21170;-60
2022/09/10 03:08:28;;;;;;;4.90;1.90;;;17.00;99.90;;;;;;4995562;28;20976;-60
2022/09/10 03:10:54;;;;;;;7.63;1.53;;;17.10;99.90;;;;;;5000230;28;20539;-61
2022/09/10 03:13:20;;;;;;;3.37;1.60;;;17.10;99.90;;;;;;4997804;28;20219;-61
2022/09/10 03:15:46;;;;;;;5.10;1.90;;;17.10;99.90;;;;;;4994256;28;20986;-61
2022/09/10 03:18:11;;;;;;;3.30;1.43;;;17.10;99.90;;;;;;4999734;28;20260;-61
2022/09/10 03:20:37;;;;;;;4.03;1.70;;;17.20;99.90;;;;;;4995212;28;20197;-61
2022/09/10 03:23:02;;;;;;;2.80;1.50;;;17.20;99.90;;;;;;4997376;28;20263;-61
2022/09/10 03:25:28;;;;;;;2.80;1.67;;;17.20;99.90;;;;;;4998417;28;20219;-61
2022/09/10 03:27:54;;;;;;;2.10;1.30;;;17.20;99.90;;;;;;4997726;28;20506;-61
2022/09/10 03:30:20;;;;;;;3.23;1.47;;;17.20;99.90;;;;;;4998695;28;20194;-61
2022/09/10 03:32:46;;;;;;;3.00;1.80;;;17.20;99.90;;;;;;4996003;28;20616;-61
2022/09/10 03:35:12;;;;;;;3.03;1.50;;;17.20;99.90;;;;;;4993840;28;20468;-61
2022/09/10 03:37:39;;;;;;;5.20;1.83;;;17.30;99.90;;;;;;4998223;28;20719;-61
2022/09/10 03:40:06;;;;;;;2.57;1.70;;;17.20;99.90;;;;;;4998488;28;20462;-60
2022/09/10 03:42:32;;;;;;;2.60;1.80;;;17.20;99.90;;;;;;4996957;28;20442;-62
2022/09/10 03:44:57;;;;;;;3.03;1.70;;;17.20;99.90;;;;;;4996261;28;20519;-60
2022/09/10 03:47:23;;;;;;;2.87;1.50;;;17.20;99.90;;;;;;4997119;28;20228;-60
2022/09/10 03:49:49;;;;;;;6.60;1.83;;;17.20;99.90;;;;;;4994261;28;20235;-62
2022/09/10 03:52:16;;;;;;;2.27;1.33;;;17.30;99.90;;;;;;4995877;28;20519;-60
2022/09/10 03:54:41;;;;;;;5.30;1.80;;;17.30;99.90;;;;;;5008653;28;20746;-61
2022/09/10 03:57:07;;;;;;;2.63;1.53;;;17.30;99.90;;;;;;4996084;28;20467;-61
2022/09/10 03:59:33;;;;;;;2.70;1.77;;;17.20;99.90;;;;;;5001012;28;20185;-61
2022/09/10 04:01:59;;;;;;;3.70;1.50;;;17.30;99.90;;;;;;4997503;28;20212;-61
2022/09/10 04:04:25;;;;;;;2.80;1.70;;;17.30;99.90;;;;;;4996996;28;20524;-60
2022/09/10 04:06:53;;;;;;;3.77;1.90;;;17.20;99.90;;;;;;4995436;28;20193;-61
2022/09/10 04:09:19;;;;;;;4.10;1.73;;;17.20;99.90;;;;;;4998451;28;20192;-61
2022/09/10 04:11:45;;;;;;;2.60;1.47;;;17.30;99.90;;;;;;4994307;28;20448;-61
2022/09/10 04:14:11;;;;;;;3.00;1.63;;;17.40;99.90;;;;;;4996305;28;20225;-60
2022/09/10 04:16:37;;;;;;;2.20;1.40;;;17.40;99.90;;;;;;5001135;28;20205;-61
2022/09/10 04:19:02;;;;;;;2.80;1.93;;;17.50;99.90;;;;;;5000188;28;20608;-61
2022/09/10 04:21:28;;;;;;;3.67;2.00;;;17.50;99.90;;;;;;5000242;28;20224;-61
2022/09/10 04:23:55;;;;;;;2.67;1.50;;;17.50;99.90;;;;;;5001294;28;20201;-61
2022/09/10 04:26:21;;;;;;;2.83;1.60;;;17.40;99.90;;;;;;4999548;28;20218;-61
2022/09/10 04:28:47;;;;;;;2.57;1.50;;;17.40;99.90;;;;;;4998416;28;20799;-60
2022/09/10 04:31:13;;;;;;;2.00;1.50;;;17.30;99.90;;;;;;4997688;28;20455;-61
2022/09/10 04:33:38;;;;;;;4.13;1.57;;;17.30;99.90;;;;;;4999601;28;20214;-61
2022/09/10 04:36:04;;;;;;;4.97;1.67;;;17.30;99.90;;;;;;4995645;28;20213;-61
2022/09/10 04:38:31;;;;;;;4.77;2.00;;;17.30;99.90;;;;;;4999285;28;20272;-61
2022/09/10 04:41:00;;;;;;;2.93;2.03;;;17.30;99.90;;;;;;5000387;28;20534;-60
2022/09/10 04:43:27;;;;;;;3.10;1.60;;;17.40;99.90;;;;;;5002997;28;20468;-60
2022/09/10 04:45:54;;;;;;;5.33;1.60;;;17.30;99.90;;;;;;4997931;28;20815;-61
2022/09/10 04:48:20;;;;;;;1.60;1.30;;;17.40;99.90;;;;;;5001165;28;20435;-60
2022/09/10 04:50:46;;;;;;;4.00;2.67;;;17.30;99.90;;;;;;5001690;28;20435;-60
2022/09/10 04:53:11;;;;;;;2.57;1.50;;;17.30;99.90;;;;;;5001788;28;20478;-61
2022/09/10 04:55:38;;;;;;;2.93;1.40;;;17.20;99.90;;;;;;4997764;28;20204;-61
2022/09/10 04:58:04;;;;;;;3.10;1.73;;;17.30;99.90;;;;;;4993699;28;20189;-60
2022/09/10 05:00:31;;;;;;;2.90;1.60;;;17.30;99.90;;;;;;4998817;28;21229;-60
2022/09/10 05:02:56;;;;;;;5.70;2.10;;;17.20;99.90;;;;;;4999873;28;20435;-60
2022/09/10 05:05:22;;;;;;;2.40;1.50;;;17.30;99.90;;;;;;5001052;28;20471;-60
2022/09/10 05:07:47;;;;;;;2.63;1.50;;;17.30;99.90;;;;;;4998879;28;20207;-60
2022/09/10 05:10:14;;;;;;;6.40;1.70;;;17.30;99.90;;;;;;4995692;28;20192;-61
2022/09/10 05:12:40;;;;;;;2.43;1.50;;;17.30;99.90;;;;;;5001770;28;20189;-61
2022/09/10 05:15:06;;;;;;;2.80;2.00;;;17.30;99.90;;;;;;5010858;28;20483;-60
2022/09/10 05:17:32;;;;;;;6.63;2.10;;;17.30;99.90;;;;;;4998935;28;20192;-61
2022/09/10 05:19:59;;;;;;;3.70;1.83;;;17.30;99.90;;;;;;5000093;28;20432;-61
2022/09/10 05:22:24;;;;;;;1.83;1.47;;;17.30;99.90;;;;;;4999557;28;20452;-60
2022/09/10 05:24:50;;;;;;;1.90;1.60;;;17.40;99.90;;;;;;4998542;28;20452;-61
2022/09/10 05:27:15;;;;;;;2.60;1.57;;;17.40;99.90;;;;;;5000553;28;20178;-60
2022/09/10 05:29:41;;;;;;;3.37;1.90;;;17.40;99.90;;;;;;5000867;28;20189;-60
2022/09/10 05:32:12;;;;;;;4.83;1.73;;;17.40;99.90;;;;;;4996934;28;20192;-60
2022/09/10 05:34:38;;;;;;;5.00;1.97;;;17.40;99.90;;;;;;4994567;28;20447;-61
2022/09/10 05:37:04;;;;;;;3.67;1.73;;;17.30;99.90;;;;;;4996546;28;20542;-60
2022/09/10 05:39:30;;;;;;;2.90;2.60;;;17.30;99.90;;;;;;4992759;28;20452;-60
2022/09/10 05:41:56;;;;;;;2.57;1.70;;;17.40;99.90;;;;;;4993877;28;20440;-60
2022/09/10 05:44:21;;;;;;;6.20;1.87;;;17.40;99.90;;;;;;5011268;28;20670;-60
2022/09/10 05:46:47;;;;;;;4.77;1.80;;;17.40;99.90;;;;;;4996647;28;20193;-60
2022/09/10 05:49:12;;;;;;;3.10;1.50;;;17.40;99.90;;;;;;5000043;28;20607;-60
2022/09/10 05:51:38;;;;;;;3.50;2.03;;;17.30;99.90;;;;;;4995619;28;20236;-60
2022/09/10 05:54:04;;;;;;;3.50;1.60;;;17.30;99.90;;;;;;4995862;28;20228;-60
2022/09/10 05:56:30;;;;;;;2.77;1.67;;;17.30;99.90;;;;;;4994552;28;20217;-61
2022/09/10 05:58:56;;;;;;;5.13;1.80;;;17.30;99.90;;;;;;4999417;28;20181;-60
2022/09/10 06:01:21;;;;;;;2.47;1.80;;;17.30;99.90;;;;;;4997626;28;20455;-60
2022/09/10 06:03:47;;;;;;;4.60;2.00;;;17.30;99.90;;;;;;4995213;28;20701;-60
2022/09/10 06:06:13;;;;;;;2.53;1.70;;;17.30;99.90;;;;;;4996004;28;20185;-60
2022/09/10 06:08:38;;;;;;;3.90;1.60;;;17.30;99.90;;;;;;4995849;28;20188;-60
2022/09/10 06:11:05;;;;;;;3.00;1.90;;;17.20;99.90;;;;;;4994730;28;20710;-60
2022/09/10 06:13:33;;;;;;;1.90;1.53;;;17.30;99.90;;;;;;4997147;28;20696;-61
2022/09/10 06:16:00;;;;;;;3.93;1.60;;;17.20;99.90;;;;;;4995649;28;20618;-60
2022/09/10 06:18:26;;;;;;;2.83;1.70;;;17.20;99.90;;;;;;4993183;28;20439;-60
2022/09/10 06:21:10;;;;;;;2.97;2.00;;;17.20;99.90;;;;;;4997220;28;20861;-60
2022/09/10 06:23:36;;;;;;;2.87;1.80;;;17.30;99.90;;;;;;4994335;28;20484;-60
2022/09/10 06:26:07;;;;;;;6.33;1.87;;;17.30;99.90;;;;;;4998760;28;20498;-61
2022/09/10 06:28:33;;;;;;;3.07;1.80;;;17.30;99.90;;;;;;4993936;28;20275;-61
2022/09/10 06:30:59;;;;;;;3.23;1.90;;;17.20;99.90;;;;;;4996820;28;20445;-61
2022/09/10 06:33:25;;;;;;;6.23;2.20;;;17.30;99.90;;;;;;4998933;28;20468;-61
2022/09/10 06:35:53;;;;;;;3.50;1.80;;;17.30;99.90;;;;;;4995201;28;20464;-61
2022/09/10 06:38:18;;;;;;;5.60;1.70;;;17.30;99.90;;;;;;4998645;28;20241;-60
2022/09/10 06:40:54;;;;;;;3.70;1.90;;;17.30;99.90;;;;;;4994429;28;20451;-61
2022/09/10 06:43:24;;;;;;;2.97;2.00;;;17.40;99.90;;;;;;4996738;28;20195;-60
2022/09/10 06:45:51;;;;;;;3.27;2.10;;;17.30;99.90;;;;;;4995285;28;20595;-61
2022/09/10 06:48:18;;;;;;;3.03;1.90;;;17.40;99.90;;;;;;4994890;28;20455;-61
2022/09/10 06:50:52;;;;;;;2.50;2.00;;;17.30;99.90;;;;;;5002693;28;20445;-60
2022/09/10 06:53:20;;;;;;;5.40;1.70;;;17.30;99.90;;;;;;5003126;28;21075;-60
2022/09/10 06:55:47;;;;;;;2.70;2.00;;;17.30;99.90;;;;;;4992074;28;20531;-60
2022/09/10 06:58:13;;;;;;;2.57;1.63;;;17.30;99.90;;;;;;4989559;28;20619;-60
2022/09/10 07:00:38;;;;;;;3.47;1.60;;;17.40;99.90;;;;;;4995575;28;20487;-61
2022/09/10 07:03:04;;;;;;;2.87;1.60;;;17.40;99.90;;;;;;4990641;28;20558;-61
2022/09/10 07:05:33;;;;;;;3.03;1.67;;;17.50;99.90;;;;;;4994053;28;20651;-61
2022/09/10 07:07:58;;;;;;;3.30;1.73;;;17.50;99.90;;;;;;5012164;28;20615;-62
2022/09/10 07:10:24;;;;;;;2.60;1.50;;;17.50;99.90;;;;;;4996794;28;20509;-61
2022/09/10 07:12:49;;;;;;;3.43;1.53;;;17.60;99.90;;;;;;4998119;28;20200;-60
2022/09/10 07:15:16;;;;;;;2.30;1.40;;;17.60;99.90;;;;;;4994377;28;20297;-61
2022/09/10 07:17:42;;;;;;;2.13;1.30;;;17.70;99.90;;;;;;4990417;28;20607;-65
2022/09/10 07:20:08;;;;;;;2.93;1.70;;;17.70;99.90;;;;;;4991203;28;20444;-65
2022/09/10 07:22:33;;;;;;;5.93;1.60;;;17.60;99.90;;;;;;4996612;28;20213;-65
2022/09/10 07:24:59;;;;;;;4.40;1.57;;;17.80;99.90;;;;;;4987988;28;20958;-65
2022/09/10 07:27:24;;;;;;;2.77;1.70;;;17.90;99.90;;;;;;4995841;28;20713;-65
2022/09/10 07:29:50;;;;;;;4.30;1.37;;;18.10;99.90;;;;;;4998158;28;20541;-65
2022/09/10 07:32:17;;;;;;;2.53;1.60;;;18.10;99.90;;;;;;4994775;28;20181;-65
2022/09/10 07:34:43;;;;;;;2.90;1.53;;;18.20;99.90;;;;;;4994256;28;20528;-66
2022/09/10 07:37:08;;;;;;;3.47;1.77;;;18.40;99.90;;;;;;4991755;28;20456;-66
2022/09/10 07:39:34;;;;;;;6.27;1.77;;;18.40;99.90;;;;;;4995957;28;20578;-66
2022/09/10 07:42:00;;;;;;;2.23;1.60;;;18.40;99.90;;;;;;4989445;28;20197;-66
2022/09/10 07:44:25;;;;;;;2.90;1.57;;;18.30;99.90;;;;;;4993095;28;20201;-66
2022/09/10 07:46:51;;;;;;;2.90;1.47;;;18.40;99.90;;;;;;4991452;28;20220;-66
2022/09/10 07:49:17;;;;;;;2.10;1.40;;;18.40;99.90;;;;;;4999657;28;20197;-67
2022/09/10 07:51:42;;;;;;;3.33;1.80;;;18.40;99.90;;;;;;5001096;28;20840;-66
2022/09/10 07:54:08;;;;;;;3.10;1.53;;;18.30;99.90;;;;;;4995289;28;20264;-67
2022/09/10 07:56:34;;;;;;;3.10;1.43;;;18.40;99.90;;;;;;4994307;28;20661;-65
2022/09/10 07:59:01;;;;;;;3.83;1.40;;;18.30;99.90;;;;;;4995425;28;20177;-65
2022/09/10 08:01:27;;;;;;;3.70;1.70;;;18.40;99.90;;;;;;4999056;28;20181;-65
2022/09/10 08:03:57;;;;;;;2.97;1.80;;;18.40;99.90;;;;;;5000892;28;21049;-65
2022/09/10 08:06:23;;;;;;;3.33;1.43;;;18.40;99.90;;;;;;4998425;28;20331;-64
2022/09/10 08:08:49;;;;;;;2.93;1.50;;;18.30;99.90;;;;;;5000655;28;20518;-65
2022/09/10 08:11:17;;;;;;;3.57;1.60;;;18.40;99.90;;;;;;4998886;28;20496;-63
2022/09/10 08:16:20;;;;;;;2.10;1.30;;;18.50;99.90;;;;;;5003249;22;20503;-66
2022/09/10 08:18:46;;;;;;;4.10;1.30;;;18.60;99.90;;;;;;4992135;28;20863;-65
2022/09/10 08:21:13;;;;;;;2.90;1.80;;;18.70;99.90;;;;;;5008047;28;20459;-65
2022/09/10 08:23:39;;;;;;;3.20;1.67;;;18.90;99.90;;;;;;4991977;28;21027;-67
2022/09/10 08:26:07;;;;;;;2.57;1.50;;;18.80;99.90;;;;;;4996248;28;20468;-66
2022/09/10 08:28:33;;;;;;;2.30;1.50;;;18.80;99.90;;;;;;4980931;28;20444;-66
2022/09/10 08:31:08;;;;;;;2.80;1.40;;;18.90;99.90;;;;;;4996884;28;20432;-66
2022/09/10 08:33:35;;;;;;;3.70;1.93;;;19.00;99.90;;;;;;5000655;28;20811;-66
2022/09/10 08:36:01;;;;;;;3.77;1.83;;;18.90;99.90;;;;;;4999919;28;20478;-66
2022/09/10 08:38:33;;;;;;;3.20;1.40;;;19.00;99.90;;;;;;4997946;28;20444;-66
2022/09/10 08:41:01;;;;;;;4.90;1.70;;;19.00;99.90;;;;;;4999074;28;20531;-66
2022/09/10 08:43:55;;;;;;;2.40;1.40;;;19.10;99.90;;;;;;5001142;28;20872;-67
2022/09/10 08:46:24;;;;;;;4.47;1.60;;;19.10;99.90;;;;;;4977159;28;20736;-67
2022/09/10 08:49:03;;;;;;;3.33;1.90;;;19.10;99.90;;;;;;4996475;28;20413;-66
2022/09/10 08:51:53;;;;;;;6.50;1.90;;;19.10;99.90;;;;;;4997169;28;20447;-66
2022/09/10 08:54:25;;;;;;;5.43;1.70;;;18.90;99.90;;;;;;4999976;28;20535;-67
2022/09/10 08:56:54;;;;;;;4.70;1.70;;;18.90;99.90;;;;;;5000001;28;20827;-66
2022/09/10 08:59:52;;;;;;;5.83;1.70;;;18.90;99.90;;;;;;5001048;28;20720;-66
2022/09/10 09:02:29;;;;;;;4.20;2.10;;;18.80;99.90;;;;;;4982055;28;20439;-66
2022/09/10 09:05:13;;;;;;;3.70;1.93;;;18.70;99.90;;;;;;4996875;28;20437;-66
2022/09/10 09:07:39;;;;;;;2.23;1.53;;;18.70;99.90;;;;;;4996401;28;20413;-66
2022/09/10 09:10:26;;;;;;;3.10;1.90;;;18.50;99.90;;;;;;4997378;28;20417;-67
2022/09/10 09:13:13;;;;;;;3.40;1.53;;;18.70;99.90;;;;;;5000176;28;20436;-66
2022/09/10 09:15:48;;;;;;;2.90;1.63;;;18.70;99.90;;;;;;4999519;28;20775;-66
2022/09/10 09:18:44;;;;;;;3.33;1.90;;;18.60;99.90;;;;;;4999202;28;20500;-66
2022/09/10 09:21:15;;;;;;;3.30;1.67;;;18.70;99.90;;;;;;4999580;28;20408;-66
2022/09/10 09:23:53;;;;;;;6.70;1.50;;;18.70;99.90;;;;;;4998493;28;20436;-66
2022/09/10 09:26:21;;;;;;;3.90;1.67;;;18.80;99.90;;;;;;4999946;28;20417;-66
2022/09/10 09:29:01;;;;;;;6.17;1.90;;;18.80;99.90;;;;;;4998629;28;20519;-66
2022/09/10 09:31:31;;;;;;;6.13;2.60;;;18.80;99.90;;;;;;4999248;28;20427;-66
2022/09/10 09:34:08;;;;;;;3.23;1.73;;;18.80;99.90;;;;;;4998461;28;20550;-66
2022/09/10 09:36:43;;;;;;;3.20;1.70;;;18.90;99.90;;;;;;4984383;28;20470;-66
2022/09/10 09:39:41;;;;;;;2.93;2.07;;;18.90;99.90;;;;;;4999902;28;20486;-67
2022/09/10 09:42:17;;;;;;;2.37;1.73;;;19.10;99.90;;;;;;4997049;28;20490;-66
2022/09/10 09:45:22;;;;;;;2.83;1.57;;;19.20;99.90;;;;;;5000188;28;20610;-66
2022/09/10 09:47:49;;;;;;;2.43;1.80;;;19.20;99.90;;;;;;4944847;28;20440;-66
2022/09/10 09:50:17;;;;;;;5.70;1.90;;;19.30;99.90;;;;;;4998960;28;20434;-66
2022/09/10 09:52:44;;;;;;;6.90;2.07;;;19.40;99.90;;;;;;4999018;28;20446;-66
2022/09/10 09:55:39;;;;;;;5.90;1.53;;;19.40;99.90;;;;;;4997732;28;20535;-67
2022/09/10 09:58:23;;;;;;;5.33;1.73;;;19.50;99.90;;;;;;4961185;28;20462;-66
2022/09/10 10:01:03;;;;;;;4.00;1.80;;;19.60;99.90;;;;;;4998125;28;20853;-67
2022/09/10 10:03:51;;;;;;;2.70;1.50;;;19.70;99.90;;;;;;4998318;28;20419;-67
2022/09/10 10:06:28;;;;;;;4.00;1.70;;;19.80;99.90;;;;;;4999526;28;20440;-67
2022/09/10 10:09:03;;;;;;;3.40;1.60;;;19.80;99.90;;;;;;4998410;28;20419;-67
2022/09/10 10:11:46;;;;;;;6.13;1.70;;;19.90;99.90;;;;;;4998521;28;20852;-67
2022/09/10 10:14:25;;;;;;;4.87;2.07;;;19.80;99.90;;;;;;4994754;28;21465;-67
2022/09/10 10:16:53;;;;;;;3.93;1.80;;;19.80;99.90;;;;;;4997822;28;20471;-66
2022/09/10 10:19:26;;;;;;;4.07;1.80;;;19.90;99.90;;;;;;4998351;28;20424;-66
2022/09/10 10:21:53;;;;;;;2.93;1.47;;;20.00;99.90;;;;;;4997211;28;20917;-66
2022/09/10 10:24:32;;;;;;;4.60;1.67;;;20.00;99.90;;;;;;4995235;28;20452;-66
2022/09/10 10:26:59;;;;;;;3.30;1.60;;;19.90;99.90;;;;;;4996115;28;20829;-66
2022/09/10 10:29:25;;;;;;;3.40;1.60;;;19.90;99.90;;;;;;4997855;28;20513;-66
2022/09/10 10:31:52;;;;;;;4.80;2.00;;;19.90;99.90;;;;;;5000808;28;20428;-66
2022/09/10 10:34:46;;;;;;;4.73;2.10;;;19.90;99.90;;;;;;4997822;28;20456;-66
2022/09/10 10:37:30;;;;;;;4.00;2.20;;;20.10;99.90;;;;;;4999576;28;20555;-67
2022/09/10 10:40:13;;;;;;;2.97;2.10;;;20.10;99.90;;;;;;4997800;28;20438;-65
2022/09/10 10:43:12;;;;;;;5.33;2.10;;;20.30;99.90;;;;;;4998339;28;20428;-67
2022/09/10 10:45:50;;;;;;;3.17;1.57;;;20.40;99.90;;;;;;4993651;28;20468;-67
2022/09/10 10:48:34;;;;;;;6.77;1.90;;;20.50;99.90;;;;;;4997199;28;20912;-67
2022/09/10 10:51:26;;;;;;;2.83;1.93;;;20.60;99.90;;;;;;4994616;28;20816;-66
2022/09/10 10:54:06;;;;;;;6.63;1.93;;;20.70;99.90;;;;;;4996015;28;20419;-66
2022/09/10 10:56:41;;;;;;;4.93;1.73;;;20.60;99.90;;;;;;4997532;28;21003;-66
2022/09/10 10:59:39;;;;;;;2.40;1.50;;;20.50;99.90;;;;;;4997079;28;20413;-66
2022/09/10 11:02:14;;;;;;;3.77;2.07;;;20.40;99.90;;;;;;4999212;28;20828;-66
2022/09/10 11:04:45;;;;;;;3.20;2.10;;;20.30;99.90;;;;;;4995528;28;20456;-66
2022/09/10 11:07:33;;;;;;;3.40;1.83;;;20.30;99.90;;;;;;4995393;28;20510;-66
2022/09/10 11:10:19;;;;;;;3.30;1.87;;;20.30;99.90;;;;;;4997276;28;20476;-66
2022/09/10 11:12:56;;;;;;;2.57;1.70;;;20.30;99.90;;;;;;4997266;28;20463;-66
2022/09/10 11:15:23;;;;;;;7.60;2.00;;;20.40;99.90;;;;;;4996418;28;20460;-67
2022/09/10 11:17:54;;;;;;;8.07;2.20;;;20.50;99.90;;;;;;4996410;28;20428;-67
2022/09/10 11:20:23;;;;;;;3.73;1.70;;;20.50;99.90;;;;;;4997983;28;20440;-67
2022/09/10 11:23:09;;;;;;;3.70;2.40;;;20.60;99.90;;;;;;4996715;28;20847;-67
2022/09/10 11:26:02;;;;;;;5.60;1.63;;;20.70;99.90;;;;;;4994666;28;20439;-67
2022/09/10 11:28:49;;;;;;;3.70;1.77;;;20.80;99.90;;;;;;4997791;28;21039;-66
2022/09/10 11:31:34;;;;;;;3.20;2.10;;;21.00;99.90;;;;;;4997739;28;20431;-67
2022/09/10 11:34:03;;;;;;;3.03;2.03;;;21.00;99.90;;;;;;4994714;28;20756;-67
2022/09/10 11:36:34;;;;;;;5.70;2.07;;;21.10;99.90;;;;;;4996072;28;20471;-67
2022/09/10 11:39:16;;;;;;;3.37;2.10;;;21.20;99.90;;;;;;4998408;28;20685;-66
2022/09/10 11:41:45;;;;;;;6.03;2.57;;;21.20;99.90;;;;;;4999100;28;20521;-66
2022/09/10 11:44:48;;;;;;;7.93;2.37;;;21.20;99.90;;;;;;4995435;28;20440;-67
2022/09/10 11:47:37;;;;;;;4.20;1.83;;;21.10;99.90;;;;;;4997500;28;20535;-66
2022/09/10 11:50:29;;;;;;;3.30;2.27;;;21.00;99.90;;;;;;4998099;28;20444;-67
2022/09/10 11:52:58;;;;;;;2.27;1.67;;;21.10;99.90;;;;;;4994685;28;20452;-66
2022/09/10 11:55:46;;;;;;;4.77;2.13;;;21.20;99.90;;;;;;4996257;28;20467;-67
2022/09/10 11:58:25;;;;;;;4.40;1.90;;;21.30;99.90;;;;;;4997844;28;20523;-67
2022/09/10 12:01:12;;;;;;;6.77;2.23;;;21.30;99.90;;;;;;4996433;28;20431;-67
2022/09/10 12:03:52;;;;;;;2.57;1.90;;;21.30;99.90;;;;;;4999492;28;20412;-67
2022/09/10 12:06:45;;;;;;;4.87;2.30;;;21.50;99.90;;;;;;4997633;28;20781;-67
2022/09/10 12:09:11;;;;;;;5.80;1.90;;;21.60;99.90;;;;;;4994638;28;20447;-67
2022/09/10 12:12:04;;;;;;;4.13;2.07;;;21.60;99.90;;;;;;4997337;28;20423;-67
2022/09/10 12:14:30;;;;;;;4.10;1.87;;;21.30;99.90;;;;;;4996673;28;20285;-67
2022/09/10 12:17:09;;;;;;;5.67;2.20;;;21.30;99.90;;;;;;4996778;28;20567;-67
2022/09/10 12:19:45;;;;;;;3.63;1.93;;;21.20;99.90;;;;;;4996001;28;20196;-65
2022/09/10 12:22:24;;;;;;;4.70;2.87;;;21.20;99.90;;;;;;4999573;28;20951;-66
2022/09/10 12:24:54;;;;;;;2.50;1.60;;;21.10;99.90;;;;;;4993253;28;20543;-66
2022/09/10 12:27:20;;;;;;;5.20;2.10;;;21.10;99.90;;;;;;4996088;28;20471;-65
2022/09/10 12:29:47;;;;;;;4.53;2.30;;;21.10;99.90;;;;;;4996807;28;20460;-68
2022/09/10 12:32:18;;;;;;;3.20;1.83;;;21.10;99.90;;;;;;4996131;28;20456;-66
2022/09/10 12:34:49;;;;;;;8.97;3.93;;;20.70;99.90;;;;;;4992671;28;20464;-67
2022/09/10 12:37:33;;;;;;;8.70;5.80;;;20.70;99.90;;;;;;5002279;28;20464;-66
2022/09/10 12:40:34;;;;;;;13.03;2.23;;;20.50;99.90;;;;;;5001605;28;21059;-66
2022/09/10 12:43:38;;;;;;;4.47;2.37;;;20.20;99.90;;;;;;5001679;28;20529;-66
2022/09/10 12:46:12;;;;;;;3.50;2.23;;;20.20;99.90;;;;;;4994908;28;20470;-66
2022/09/10 12:48:46;;;;;;;3.93;2.20;;;20.30;99.90;;;;;;4997214;28;20503;-67
2022/09/10 12:51:18;;;;;;;4.30;1.80;;;20.50;99.90;;;;;;4978928;28;21008;-67
2022/09/10 12:53:46;;;;;;;3.10;1.80;;;20.70;99.90;;;;;;5000364;28;20428;-66
2022/09/10 12:56:31;;;;;;;6.53;2.30;;;20.80;99.90;;;;;;5001680;28;20530;-66
2022/09/10 12:59:11;;;;;;;3.33;1.80;;;20.80;99.90;;;;;;4998810;28;20418;-67
2022/09/10 13:01:41;;;;;;;3.10;2.00;;;20.90;99.90;;;;;;5000312;28;20432;-66
2022/09/10 13:04:25;;;;;;;3.97;1.83;;;21.00;99.90;;;;;;4997500;28;20420;-67
2022/09/10 13:06:55;;;;;;;5.43;2.17;;;21.20;99.90;;;;;;4999670;28;20427;-67
2022/09/10 13:09:34;;;;;;;5.30;2.00;;;21.70;99.90;;;;;;4998278;28;20486;-67
2022/09/10 13:12:04;;;;;;;5.13;2.30;;;22.40;99.90;;;;;;4999245;28;20446;-67
2022/09/10 13:14:34;;;;;;;4.97;1.80;;;22.50;99.90;;;;;;4979957;28;20460;-68